Aviation Digital Data Service (ADDS)

Output produced by METARs form (0435 UTC 19 February 2019)
found at http://www.aviationweather.gov/metar/data/
 
Forecast for: ZSOF (HEFEI/XINGIAO , CN)
Text: TAF ZSOF 190302Z 1906/2006 06003MPS 3000 BR BKN020 TX05/1907Z TN01/1922Z
Forecast period: 0600 UTC 19 February 2019 to 0600 UTC 20 February 2019
Forecast type: FROM: standard forecast or significant change
Winds: from the ENE (60 degrees) at 7 MPH (6 knots; 3.1 m/s)
Visibility: 1.86 miles (2.99 km)
Ceiling: 2000 feet AGL
Clouds: broken clouds at 2000 feet AGL
Weather: BR  (mist)